Time;durP1;ratioP1;P1;durP2;ratioP2;P2;SDS_P1;SDS_P2;PMS_P1;PMS_P2;Temp;Humidity;BMP_temperature;BMP_pressure;BME280_temperature;BME280_humidity;BME280_pressure;Samples;Min_cycle;Max_cycle;Signal;HPM_P1;HPM_P2
2021/04/19 00:00:16;;;;;;;23.45;15.30;;;23.20;37.90;;;;;;6195900;28;83042;-64
2021/04/19 00:03:17;;;;;;;27.13;16.45;;;23.20;37.50;;;;;;6205832;28;84223;-64
2021/04/19 00:06:17;;;;;;;29.30;17.77;;;23.20;37.40;;;;;;6226157;28;83112;-63
2021/04/19 00:09:18;;;;;;;29.55;18.65;;;23.20;37.30;;;;;;6223767;27;84225;-64
2021/04/19 00:12:18;;;;;;;31.10;18.60;;;23.20;37.50;;;;;;6210859;28;83405;-64
2021/04/19 00:15:19;;;;;;;32.83;17.70;;;23.20;37.20;;;;;;6217799;27;83225;-64
2021/04/19 00:18:20;;;;;;;30.67;18.92;;;23.20;37.90;;;;;;6194672;28;90830;-63
2021/04/19 00:21:20;;;;;;;30.63;18.75;;;23.20;37.30;;;;;;6203833;28;83054;-64
2021/04/19 00:24:21;;;;;;;34.08;19.70;;;23.10;37.50;;;;;;6199996;28;83320;-63
2021/04/19 00:27:21;;;;;;;33.85;20.45;;;23.10;37.20;;;;;;6198472;28;83367;-64
2021/04/19 00:30:22;;;;;;;32.17;19.98;;;23.10;37.30;;;;;;6207295;28;83163;-64
2021/04/19 00:33:23;;;;;;;27.83;18.05;;;23.20;37.40;;;;;;6225904;27;83368;-66
2021/04/19 00:36:24;;;;;;;30.35;19.20;;;23.10;37.40;;;;;;6212545;28;84140;-66
2021/04/19 00:39:24;;;;;;;31.90;19.00;;;23.10;37.50;;;;;;6203868;27;82959;-66
2021/04/19 00:42:25;;;;;;;32.38;19.75;;;23.10;37.50;;;;;;6204263;28;82907;-64
2021/04/19 00:45:25;;;;;;;31.60;20.42;;;23.10;37.10;;;;;;6206825;28;83735;-65
2021/04/19 00:48:26;;;;;;;32.67;19.98;;;23.10;37.20;;;;;;6204456;28;83264;-65
2021/04/19 00:51:26;;;;;;;31.90;19.70;;;23.10;37.40;;;;;;6211891;28;83085;-65
2021/04/19 00:54:27;;;;;;;33.65;20.70;;;23.10;37.20;;;;;;6214036;27;83217;-65
2021/04/19 00:57:27;;;;;;;34.08;21.92;;;23.10;37.50;;;;;;6222044;27;83122;-65
2021/04/19 01:00:28;;;;;;;35.42;21.33;;;23.10;37.60;;;;;;6233110;28;86134;-64
2021/04/19 01:03:29;;;;;;;33.22;20.52;;;23.10;37.20;;;;;;6203859;28;84480;-65
2021/04/19 01:06:30;;;;;;;31.77;21.05;;;23.10;37.10;;;;;;6207850;28;85418;-64
2021/04/19 01:09:31;;;;;;;33.10;20.40;;;23.10;37.10;;;;;;6202548;28;83974;-64
2021/04/19 01:12:31;;;;;;;33.47;21.48;;;23.10;37.10;;;;;;6228318;28;86051;-64
2021/04/19 01:15:32;;;;;;;35.15;21.23;;;23.10;37.40;;;;;;6217491;28;88707;-63
2021/04/19 01:18:32;;;;;;;32.05;20.35;;;23.10;37.00;;;;;;6215783;27;84256;-65
2021/04/19 01:21:33;;;;;;;35.95;21.17;;;23.00;37.20;;;;;;6198434;27;83134;-64
2021/04/19 01:24:33;;;;;;;33.90;20.23;;;23.10;37.00;;;;;;6192770;28;83303;-64
2021/04/19 01:27:35;;;;;;;33.10;19.38;;;23.00;36.90;;;;;;6219010;28;84871;-64
2021/04/19 01:30:35;;;;;;;35.40;20.08;;;23.00;37.30;;;;;;6234242;28;85959;-65
2021/04/19 01:33:36;;;;;;;31.02;19.90;;;23.00;36.70;;;;;;6200366;28;83472;-65
2021/04/19 01:36:36;;;;;;;35.05;20.33;;;23.00;36.90;;;;;;6200189;27;84701;-65
2021/04/19 01:39:38;;;;;;;36.00;21.23;;;23.00;36.90;;;;;;6214755;28;85875;-65
2021/04/19 01:42:41;;;;;;;35.50;19.50;;;23.00;37.00;;;;;;6195283;28;83291;-65
2021/04/19 01:45:42;;;;;;;36.55;21.42;;;23.00;36.80;;;;;;6213909;28;85922;-66
2021/04/19 01:48:42;;;;;;;37.80;21.23;;;23.00;36.90;;;;;;6206810;28;85670;-66
2021/04/19 01:51:43;;;;;;;36.33;20.85;;;23.00;36.90;;;;;;6209061;28;83385;-66
2021/04/19 01:54:44;;;;;;;36.25;22.27;;;23.00;37.10;;;;;;6198157;28;84850;-65
2021/04/19 01:57:44;;;;;;;33.42;20.85;;;23.00;37.00;;;;;;6203464;27;82895;-66
2021/04/19 02:00:46;;;;;;;34.10;20.77;;;23.00;36.90;;;;;;6203809;28;85617;-66
2021/04/19 02:03:47;;;;;;;36.10;20.83;;;23.00;37.00;;;;;;6212440;28;85957;-66
2021/04/19 02:06:48;;;;;;;34.83;21.35;;;23.00;37.20;;;;;;6197135;28;84252;-66
2021/04/19 02:09:49;;;;;;;35.97;21.95;;;23.00;37.00;;;;;;6199024;28;84618;-65
2021/04/19 02:12:52;;;;;;;31.85;20.00;;;23.10;37.40;;;;;;6218401;28;85728;-65
2021/04/19 02:15:55;;;;;;;31.40;19.85;;;23.00;37.20;;;;;;6202553;28;82821;-64
2021/04/19 02:18:55;;;;;;;30.40;19.65;;;23.00;37.20;;;;;;6223798;28;85645;-64
2021/04/19 02:21:56;;;;;;;30.42;20.02;;;23.00;37.10;;;;;;6224636;27;83978;-65
2021/04/19 02:24:57;;;;;;;32.28;19.63;;;23.00;37.00;;;;;;6200510;28;85537;-64
2021/04/19 02:27:58;;;;;;;31.40;20.55;;;23.00;37.00;;;;;;6200062;28;84186;-64
2021/04/19 02:30:59;;;;;;;36.60;21.08;;;23.00;36.90;;;;;;6217772;28;86153;-65
2021/04/19 02:33:59;;;;;;;29.95;19.80;;;23.00;36.90;;;;;;6191849;28;83263;-64
2021/04/19 02:37:01;;;;;;;30.73;20.00;;;23.00;36.90;;;;;;6214164;28;85282;-64
2021/04/19 02:40:06;;;;;;;35.15;20.15;;;23.00;36.90;;;;;;6195482;28;83873;-65
2021/04/19 02:43:06;;;;;;;32.75;19.52;;;23.00;36.90;;;;;;6198514;28;83083;-65
2021/04/19 02:46:09;;;;;;;30.02;19.25;;;23.00;37.30;;;;;;6202705;28;85573;-64
2021/04/19 02:49:10;;;;;;;31.70;19.58;;;23.00;37.00;;;;;;6205857;28;82866;-64
2021/04/19 02:52:11;;;;;;;31.23;19.48;;;23.00;37.00;;;;;;6190077;28;82973;-64
2021/04/19 02:55:11;;;;;;;29.38;18.55;;;23.00;36.80;;;;;;6208432;27;84467;-64
2021/04/19 02:58:12;;;;;;;32.90;19.67;;;23.00;37.10;;;;;;6215305;28;83139;-64
2021/04/19 03:01:12;;;;;;;31.20;19.08;;;23.00;36.60;;;;;;6200980;27;83124;-64
2021/04/19 03:04:13;;;;;;;33.25;20.55;;;23.00;36.80;;;;;;6197031;28;82837;-64
2021/04/19 03:07:16;;;;;;;29.48;19.65;;;23.00;36.90;;;;;;6209851;28;84111;-64
2021/04/19 03:10:18;;;;;;;30.25;18.92;;;23.00;36.80;;;;;;6231609;28;85476;-65
2021/04/19 03:13:19;;;;;;;31.73;20.10;;;23.00;36.80;;;;;;6234751;28;85935;-64
2021/04/19 03:16:21;;;;;;;36.05;21.10;;;23.00;36.80;;;;;;6216490;28;85683;-65
2021/04/19 03:19:22;;;;;;;36.88;20.48;;;23.00;36.80;;;;;;6209781;28;86607;-65
2021/04/19 03:22:22;;;;;;;35.22;21.20;;;23.00;36.70;;;;;;6219403;28;85975;-64
2021/04/19 03:25:24;;;;;;;33.63;21.13;;;22.90;36.90;;;;;;6212609;28;85524;-64
2021/04/19 03:28:25;;;;;;;34.85;20.70;;;23.00;36.80;;;;;;6211747;28;83024;-64
2021/04/19 03:31:32;;;;;;;33.22;21.13;;;23.00;36.60;;;;;;6206072;28;84179;-63
2021/04/19 03:34:39;;;;;;;37.85;20.85;;;23.00;35.60;;;;;;6223452;28;85275;-66
2021/04/19 03:37:40;;;;;;;33.28;20.92;;;23.00;35.50;;;;;;6223703;27;85835;-65
2021/04/19 03:40:41;;;;;;;34.22;20.88;;;23.00;35.60;;;;;;6201096;28;84011;-65
2021/04/19 03:43:46;;;;;;;31.92;19.80;;;22.90;35.70;;;;;;6207668;28;84141;-65
2021/04/19 03:46:51;;;;;;;34.58;21.40;;;22.90;35.50;;;;;;6210492;28;85334;-64
2021/04/19 03:49:55;;;;;;;36.35;21.10;;;22.90;35.50;;;;;;6216711;28;86279;-64
2021/04/19 03:52:56;;;;;;;33.90;22.08;;;23.00;35.40;;;;;;6214625;28;83227;-64
2021/04/19 03:55:56;;;;;;;35.47;21.42;;;23.00;35.40;;;;;;6223599;28;85284;-64
2021/04/19 03:58:58;;;;;;;35.22;20.95;;;23.00;35.50;;;;;;6218808;27;85358;-63
2021/04/19 04:02:02;;;;;;;34.05;21.10;;;23.00;35.50;;;;;;6212678;28;87632;-63
2021/04/19 04:05:10;;;;;;;34.42;21.10;;;23.00;35.50;;;;;;6225911;28;85099;-62
2021/04/19 04:08:22;;;;;;;33.85;19.90;;;23.00;35.50;;;;;;6225372;27;86805;-61
2021/04/19 04:11:23;;;;;;;33.45;20.35;;;23.00;35.60;;;;;;6216718;28;85705;-62
2021/04/19 04:14:31;;;;;;;29.77;19.63;;;23.10;35.70;;;;;;6225681;28;85251;-62
2021/04/19 04:17:32;;;;;;;34.63;20.80;;;23.00;35.70;;;;;;6223371;28;87082;-63
2021/04/19 04:20:47;;;;;;;34.47;20.67;;;23.10;35.90;;;;;;6201592;28;83102;-62
2021/04/19 04:23:50;;;;;;;33.17;20.20;;;23.10;36.80;;;;;;6209233;28;85496;-62
2021/04/19 04:26:51;;;;;;;32.53;20.88;;;23.10;36.60;;;;;;6233290;27;85936;-63
2021/04/19 04:29:51;;;;;;;34.75;20.90;;;23.10;36.70;;;;;;6229972;28;84691;-62
2021/04/19 04:33:12;;;;;;;30.52;18.83;;;23.10;36.70;;;;;;6195069;28;87477;-62
2021/04/19 04:36:18;;;;;;;34.17;20.55;;;23.20;36.80;;;;;;6227725;28;84595;-62
2021/04/19 04:39:23;;;;;;;34.80;20.02;;;23.20;36.70;;;;;;6211312;28;85820;-63
2021/04/19 04:42:24;;;;;;;31.48;19.75;;;23.20;36.70;;;;;;6197485;28;84445;-64
2021/04/19 04:45:24;;;;;;;35.72;19.95;;;23.20;37.10;;;;;;6191488;28;83275;-64
2021/04/19 04:48:25;;;;;;;35.47;19.33;;;23.20;37.70;;;;;;6226638;28;83649;-63
2021/04/19 04:51:25;;;;;;;33.67;19.48;;;23.20;38.00;;;;;;6215809;27;83094;-64
2021/04/19 04:54:26;;;;;;;29.05;18.92;;;23.20;39.10;;;;;;6201588;28;83344;-64
2021/04/19 04:57:26;;;;;;;27.67;18.20;;;23.30;38.60;;;;;;6201417;28;82970;-64
2021/04/19 05:00:27;;;;;;;31.90;19.23;;;23.30;38.80;;;;;;6207336;27;82973;-63
2021/04/19 05:03:27;;;;;;;29.85;19.13;;;23.30;39.00;;;;;;6212241;28;83306;-64
2021/04/19 05:06:28;;;;;;;33.92;20.08;;;23.40;39.20;;;;;;6205071;28;84195;-63
2021/04/19 05:09:29;;;;;;;32.05;20.13;;;23.40;39.30;;;;;;6215580;28;83083;-62
2021/04/19 05:12:29;;;;;;;36.50;20.45;;;23.40;39.40;;;;;;6217965;28;83227;-62
2021/04/19 05:15:30;;;;;;;33.33;20.13;;;23.40;39.50;;;;;;6210867;28;83556;-62
2021/04/19 05:18:30;;;;;;;33.15;20.40;;;23.40;39.20;;;;;;6210035;27;84001;-61
2021/04/19 05:21:31;;;;;;;32.47;19.20;;;23.40;39.20;;;;;;6195853;28;84284;-63
2021/04/19 05:24:31;;;;;;;32.35;20.70;;;23.30;39.00;;;;;;6197995;27;84162;-63
2021/04/19 05:27:32;;;;;;;32.22;19.65;;;23.30;38.70;;;;;;6214042;28;83746;-61
2021/04/19 05:30:33;;;;;;;39.10;21.25;;;23.30;38.50;;;;;;6205750;27;83097;-64
2021/04/19 05:33:33;;;;;;;38.88;22.20;;;23.30;39.20;;;;;;6206060;28;83236;-64
2021/04/19 05:36:34;;;;;;;38.15;21.33;;;23.30;39.60;;;;;;6198435;28;83833;-63
2021/04/19 05:39:34;;;;;;;35.17;20.75;;;23.40;39.40;;;;;;6194449;28;83141;-62
2021/04/19 05:42:35;;;;;;;41.50;22.60;;;23.40;39.40;;;;;;6216624;27;83553;-62
2021/04/19 05:45:35;;;;;;;36.00;20.00;;;23.40;39.70;;;;;;6201088;28;83056;-62
2021/04/19 05:48:35;;;;;;;36.67;22.00;;;23.40;38.90;;;;;;6202532;28;83264;-62
2021/04/19 05:51:36;;;;;;;32.50;20.40;;;23.40;38.60;;;;;;6195603;28;83245;-61
2021/04/19 05:54:37;;;;;;;38.53;21.60;;;23.40;38.20;;;;;;6196795;28;84026;-63
2021/04/19 05:57:37;;;;;;;37.20;21.80;;;23.40;38.10;;;;;;6198491;28;84213;-62
2021/04/19 06:00:38;;;;;;;41.75;22.45;;;23.30;39.40;;;;;;6192626;28;84457;-62
2021/04/19 06:03:38;;;;;;;33.97;21.35;;;23.30;37.90;;;;;;6203047;28;83512;-62
2021/04/19 06:06:39;;;;;;;33.45;22.20;;;23.30;38.10;;;;;;6238882;28;83395;-61
2021/04/19 06:09:43;;;;;;;37.17;22.77;;;23.30;38.30;;;;;;6220350;27;83947;-63
2021/04/19 06:13:08;;;;;;;42.97;24.20;;;23.30;38.30;;;;;;6204367;27;86206;-64
2021/04/19 06:16:08;;;;;;;40.45;24.42;;;23.30;39.30;;;;;;6212265;28;83408;-63
2021/04/19 06:19:09;;;;;;;42.03;24.92;;;23.20;39.90;;;;;;6198501;27;83769;-63
2021/04/19 06:22:09;;;;;;;38.33;23.13;;;23.20;39.90;;;;;;6199628;27;84585;-63
2021/04/19 06:25:10;;;;;;;40.58;23.17;;;23.20;40.00;;;;;;6208137;28;83306;-63
2021/04/19 06:28:11;;;;;;;38.35;23.67;;;23.20;40.20;;;;;;6203303;28;84698;-61
2021/04/19 06:31:11;;;;;;;43.67;27.77;;;23.20;40.20;;;;;;6208892;28;82720;-62
2021/04/19 06:34:12;;;;;;;46.92;29.10;;;23.10;39.40;;;;;;6209473;28;84212;-62
2021/04/19 06:37:13;;;;;;;46.95;30.73;;;23.00;39.10;;;;;;6197511;28;83191;-62
2021/04/19 06:40:13;;;;;;;55.60;31.38;;;22.90;38.60;;;;;;6198499;28;83761;-61
2021/04/19 06:43:14;;;;;;;55.22;31.80;;;22.80;38.40;;;;;;6199795;28;83842;-61
2021/04/19 06:46:14;;;;;;;52.28;31.13;;;22.70;38.30;;;;;;6197376;28;83065;-61
2021/04/19 06:49:15;;;;;;;52.05;31.48;;;22.70;38.10;;;;;;6208818;27;83067;-61
2021/04/19 06:52:15;;;;;;;52.00;32.55;;;22.60;38.20;;;;;;6211801;28;85065;-61
2021/04/19 06:55:16;;;;;;;48.60;31.95;;;22.60;38.30;;;;;;6210737;28;83727;-62
2021/04/19 06:58:17;;;;;;;50.88;30.73;;;22.60;38.40;;;;;;6193485;27;83410;-62
2021/04/19 07:01:17;;;;;;;51.50;30.00;;;22.60;38.80;;;;;;6187000;28;84706;-62
2021/04/19 07:04:18;;;;;;;47.33;26.33;;;22.50;38.90;;;;;;6197655;28;82753;-62
2021/04/19 07:07:18;;;;;;;38.13;22.23;;;22.60;38.70;;;;;;6208730;28;83617;-61
2021/04/19 07:10:19;;;;;;;34.03;21.92;;;22.60;38.60;;;;;;6200864;28;83350;-62
2021/04/19 07:13:19;;;;;;;35.33;19.77;;;22.50;38.60;;;;;;6202144;27;83601;-62
2021/04/19 07:16:20;;;;;;;29.30;19.13;;;22.50;38.60;;;;;;6216476;28;83525;-63
2021/04/19 07:19:21;;;;;;;33.53;19.70;;;22.50;38.60;;;;;;6200126;28;94386;-62
2021/04/19 07:22:22;;;;;;;29.85;18.55;;;22.50;38.70;;;;;;6194952;27;83239;-64
2021/04/19 07:25:22;;;;;;;25.10;14.93;;;22.50;38.40;;;;;;6209634;28;83185;-63
2021/04/19 07:28:23;;;;;;;26.52;16.25;;;22.50;39.40;;;;;;6212999;28;84072;-63
2021/04/19 07:31:23;;;;;;;27.83;17.52;;;22.60;39.60;;;;;;6203926;28;84105;-64
2021/04/19 07:34:24;;;;;;;27.13;17.13;;;22.60;40.70;;;;;;6202418;28;84351;-64
2021/04/19 07:37:24;;;;;;;27.23;16.63;;;22.60;40.50;;;;;;6204105;28;84317;-63
2021/04/19 07:40:25;;;;;;;27.55;16.88;;;22.70;40.90;;;;;;6208971;28;83194;-63
2021/04/19 07:43:25;;;;;;;24.48;15.68;;;22.70;42.00;;;;;;6217224;28;83345;-65
2021/04/19 07:46:26;;;;;;;21.92;15.20;;;22.70;42.40;;;;;;6192980;28;83325;-63
2021/04/19 07:49:26;;;;;;;23.70;15.38;;;22.80;43.60;;;;;;6197420;28;83328;-62
2021/04/19 07:52:27;;;;;;;18.75;12.50;;;22.80;44.50;;;;;;6203611;28;83106;-62
2021/04/19 07:55:27;;;;;;;16.60;11.90;;;22.90;44.20;;;;;;6209748;27;83534;-63
2021/04/19 07:58:29;;;;;;;13.68;9.57;;;22.80;44.60;;;;;;6207166;28;83044;-63
2021/04/19 08:01:29;;;;;;;11.52;8.50;;;22.90;43.60;;;;;;6215236;27;83041;-63
2021/04/19 08:04:30;;;;;;;11.93;7.88;;;23.10;43.20;;;;;;6209552;28;81369;-63
2021/04/19 08:07:30;;;;;;;12.07;8.05;;;23.30;42.70;;;;;;6202543;28;80414;-55
2021/04/19 08:10:31;;;;;;;10.85;7.07;;;23.20;42.30;;;;;;6205352;27;80645;-63
2021/04/19 08:13:31;;;;;;;12.38;7.70;;;23.20;42.30;;;;;;6211230;28;80664;-63
2021/04/19 08:16:32;;;;;;;11.20;7.07;;;23.10;42.30;;;;;;6207890;28;83355;-63
2021/04/19 08:19:34;;;;;;;10.25;7.22;;;23.10;42.20;;;;;;6221376;28;83675;-63
2021/04/19 08:22:34;;;;;;;11.85;7.80;;;23.10;41.90;;;;;;6212812;27;80477;-64
2021/04/19 08:25:35;;;;;;;13.38;8.10;;;23.10;41.80;;;;;;6207820;27;80503;-64
2021/04/19 08:28:35;;;;;;;9.70;7.18;;;23.00;41.70;;;;;;6200146;28;81911;-64
2021/04/19 08:31:36;;;;;;;11.13;7.35;;;23.00;41.30;;;;;;6196979;28;80608;-63
2021/04/19 08:34:36;;;;;;;12.05;7.97;;;23.00;41.00;;;;;;6218223;28;80434;-63
2021/04/19 08:37:37;;;;;;;10.65;7.28;;;23.00;40.80;;;;;;6234542;28;80745;-64
2021/04/19 08:40:38;;;;;;;10.90;7.28;;;23.10;40.60;;;;;;6209832;27;80906;-64
2021/04/19 08:43:39;;;;;;;13.75;8.18;;;23.10;40.50;;;;;;6213343;28;81057;-62
2021/04/19 08:46:39;;;;;;;10.25;7.03;;;23.00;40.30;;;;;;6214263;28;81365;-63
2021/04/19 08:49:40;;;;;;;13.27;7.40;;;23.00;40.20;;;;;;6211585;28;80359;-63
2021/04/19 08:52:40;;;;;;;12.30;7.28;;;23.00;40.00;;;;;;6212088;28;80399;-63
2021/04/19 08:55:41;;;;;;;11.23;6.95;;;23.00;40.00;;;;;;6207738;27;80595;-64
2021/04/19 08:58:43;;;;;;;10.48;6.97;;;23.00;39.90;;;;;;6202647;28;81414;-64
2021/04/19 09:01:43;;;;;;;11.77;6.90;;;23.00;39.80;;;;;;6197188;28;80783;-63
2021/04/19 09:04:44;;;;;;;8.65;6.45;;;23.00;39.80;;;;;;6200642;27;83055;-63
2021/04/19 09:07:49;;;;;;;9.82;7.05;;;23.00;39.80;;;;;;6213315;28;80482;-64
2021/04/19 09:10:49;;;;;;;9.38;6.30;;;23.00;39.80;;;;;;6216574;28;80668;-63
2021/04/19 09:13:50;;;;;;;8.57;6.00;;;23.00;39.80;;;;;;6201793;28;80533;-63
2021/04/19 09:16:50;;;;;;;10.13;6.68;;;23.00;39.80;;;;;;6203152;28;80893;-64
2021/04/19 09:19:51;;;;;;;7.78;5.78;;;23.00;39.80;;;;;;6204873;27;82362;-62
2021/04/19 09:22:51;;;;;;;9.55;6.50;;;23.00;40.10;;;;;;6203459;28;81721;-64
2021/04/19 09:25:52;;;;;;;9.90;6.68;;;23.00;40.10;;;;;;6214646;28;80680;-64
2021/04/19 09:28:53;;;;;;;12.90;6.97;;;23.10;40.30;;;;;;6203753;28;80160;-64
2021/04/19 09:31:53;;;;;;;10.00;6.88;;;23.00;40.30;;;;;;6215774;28;80268;-64
2021/04/19 09:34:54;;;;;;;8.95;5.97;;;23.10;40.40;;;;;;6226205;28;83741;-64
2021/04/19 09:37:54;;;;;;;9.90;6.70;;;23.00;40.50;;;;;;6214222;27;80098;-64
2021/04/19 09:40:55;;;;;;;9.70;6.07;;;23.10;40.60;;;;;;6201122;28;83171;-66
2021/04/19 09:43:58;;;;;;;7.90;5.63;;;23.10;40.60;;;;;;6218252;28;80455;-64
2021/04/19 09:46:59;;;;;;;8.50;5.70;;;23.10;40.50;;;;;;6224484;28;80579;-65
2021/04/19 09:49:59;;;;;;;10.20;6.40;;;23.10;40.50;;;;;;6209334;28;81464;-66
2021/04/19 09:53:00;;;;;;;8.55;5.93;;;23.10;40.50;;;;;;6216829;28;80607;-64
2021/04/19 09:56:00;;;;;;;7.75;5.70;;;23.00;40.40;;;;;;6199657;28;80673;-65
2021/04/19 09:59:01;;;;;;;8.13;6.05;;;23.00;40.30;;;;;;6215158;28;82161;-65
2021/04/19 10:02:02;;;;;;;8.25;5.70;;;23.10;40.30;;;;;;6209787;28;80909;-65
2021/04/19 10:05:02;;;;;;;7.22;5.53;;;23.10;40.20;;;;;;6203476;28;81578;-65
2021/04/19 10:08:04;;;;;;;8.57;5.72;;;23.10;40.20;;;;;;6202424;28;80376;-62
2021/04/19 10:11:05;;;;;;;10.70;5.95;;;23.10;40.10;;;;;;6204480;27;81101;-65
2021/04/19 10:14:05;;;;;;;7.57;5.30;;;23.10;40.00;;;;;;6215268;28;81491;-65
2021/04/19 10:17:06;;;;;;;9.73;5.97;;;23.10;39.90;;;;;;6217888;28;80764;-66
2021/04/19 10:20:06;;;;;;;8.90;6.22;;;23.10;39.90;;;;;;6222787;28;81023;-67
2021/04/19 10:23:07;;;;;;;8.15;5.30;;;23.10;39.80;;;;;;6199442;28;80695;-65
2021/04/19 10:26:07;;;;;;;9.13;5.95;;;23.10;39.80;;;;;;6197640;28;81395;-65
2021/04/19 10:29:08;;;;;;;7.70;5.68;;;23.00;40.00;;;;;;6216255;28;81523;-64
2021/04/19 10:32:09;;;;;;;6.75;5.53;;;23.00;40.00;;;;;;6218068;28;80458;-64
2021/04/19 10:35:10;;;;;;;7.50;5.55;;;23.10;40.10;;;;;;6215171;27;81896;-65
2021/04/19 10:38:10;;;;;;;8.57;5.88;;;23.00;40.10;;;;;;6189035;28;81546;-64
2021/04/19 10:41:11;;;;;;;8.93;5.72;;;23.00;40.00;;;;;;6206328;28;82340;-66
2021/04/19 10:44:12;;;;;;;8.02;5.65;;;23.00;40.50;;;;;;6197266;28;80529;-64
2021/04/19 10:47:12;;;;;;;8.80;5.95;;;23.00;40.40;;;;;;6193297;28;80533;-64
2021/04/19 10:50:13;;;;;;;9.52;6.20;;;23.00;40.40;;;;;;6201853;28;84379;-65
2021/04/19 10:53:13;;;;;;;16.67;6.25;;;23.20;40.40;;;;;;6215261;27;82080;-66
2021/04/19 10:56:21;;;;;;;9.95;6.80;;;23.20;39.90;;;;;;6217199;28;80697;-66
2021/04/19 10:59:23;;;;;;;9.13;6.80;;;23.20;39.90;;;;;;6216823;28;83324;-67
2021/04/19 11:02:23;;;;;;;9.60;6.88;;;23.20;39.70;;;;;;6206153;27;80472;-65
2021/04/19 11:05:24;;;;;;;10.57;7.80;;;23.30;39.70;;;;;;6210699;28;80543;-65
2021/04/19 11:08:25;;;;;;;13.35;7.82;;;23.20;39.60;;;;;;6238786;28;81742;-64
2021/04/19 11:11:25;;;;;;;12.65;8.10;;;23.30;40.20;;;;;;6201197;28;80430;-66
2021/04/19 11:14:27;;;;;;;11.40;8.18;;;23.30;39.90;;;;;;6190044;28;81614;-66
2021/04/19 11:17:28;;;;;;;14.75;9.30;;;23.20;39.70;;;;;;6196017;28;81193;-66
2021/04/19 11:20:28;;;;;;;10.75;8.32;;;23.30;39.70;;;;;;6190559;28;80806;-66
2021/04/19 11:23:29;;;;;;;12.40;8.40;;;23.30;39.70;;;;;;6217233;28;82410;-66
2021/04/19 11:26:29;;;;;;;14.48;9.32;;;23.30;39.70;;;;;;6204042;27;80366;-65
2021/04/19 11:29:30;;;;;;;16.23;10.07;;;23.30;39.50;;;;;;6195468;28;80271;-65
2021/04/19 11:32:31;;;;;;;13.25;9.35;;;23.30;39.70;;;;;;6197159;28;83094;-65
2021/04/19 11:35:31;;;;;;;13.95;9.27;;;23.30;39.60;;;;;;6215861;28;83851;-65
2021/04/19 11:38:33;;;;;;;13.88;9.88;;;23.30;39.80;;;;;;6206345;28;81925;-66
2021/04/19 11:41:34;;;;;;;16.50;10.30;;;23.30;39.80;;;;;;6182822;28;80370;-66
2021/04/19 11:44:35;;;;;;;18.00;10.98;;;23.30;39.70;;;;;;6215196;28;82988;-65
2021/04/19 11:47:35;;;;;;;16.92;11.00;;;23.30;39.60;;;;;;6201070;28;83925;-67
2021/04/19 11:50:36;;;;;;;17.77;10.55;;;23.30;39.50;;;;;;6201290;27;83000;-67
2021/04/19 11:53:36;;;;;;;15.05;10.35;;;23.30;39.40;;;;;;6192413;28;83628;-67
2021/04/19 11:56:37;;;;;;;17.45;11.18;;;23.40;39.90;;;;;;6221376;28;83543;-67
2021/04/19 11:59:38;;;;;;;16.95;11.43;;;23.40;40.00;;;;;;6216979;28;82911;-67
2021/04/19 12:02:38;;;;;;;18.23;11.25;;;23.40;39.60;;;;;;6221697;28;90113;-67
2021/04/19 12:05:40;;;;;;;18.77;12.07;;;23.40;39.80;;;;;;6204933;28;83161;-67
2021/04/19 12:08:42;;;;;;;19.90;11.65;;;23.40;39.70;;;;;;6218992;28;84287;-67
2021/04/19 12:11:43;;;;;;;18.00;12.27;;;23.40;39.60;;;;;;6223013;28;83422;-67
2021/04/19 12:14:48;;;;;;;17.08;12.45;;;23.40;39.80;;;;;;6208219;28;84384;-65
2021/04/19 12:17:48;;;;;;;18.20;11.63;;;23.40;39.80;;;;;;6195065;28;91293;-67
2021/04/19 12:20:50;;;;;;;20.40;12.35;;;23.50;40.20;;;;;;6220119;28;84110;-67
2021/04/19 12:23:50;;;;;;;17.50;12.38;;;23.50;40.40;;;;;;6196039;27;84386;-66
2021/04/19 12:26:51;;;;;;;17.63;11.48;;;23.50;40.50;;;;;;6188047;28;84210;-65
2021/04/19 12:29:52;;;;;;;20.23;12.40;;;23.50;40.60;;;;;;6217748;28;83707;-67
2021/04/19 12:32:52;;;;;;;19.58;12.25;;;23.50;40.30;;;;;;6215599;28;85469;-67
2021/04/19 12:35:53;;;;;;;19.50;12.63;;;23.50;40.60;;;;;;6200686;28;83230;-68
2021/04/19 12:38:53;;;;;;;16.65;11.10;;;23.50;40.50;;;;;;6202489;28;83519;-67
2021/04/19 12:41:54;;;;;;;15.73;10.93;;;23.50;40.60;;;;;;6189682;28;84219;-67
2021/04/19 12:44:54;;;;;;;15.05;11.27;;;23.50;40.50;;;;;;6189506;28;83827;-64
2021/04/19 12:47:55;;;;;;;16.85;11.45;;;23.50;40.90;;;;;;6201168;28;83213;-65
2021/04/19 12:50:56;;;;;;;16.48;11.30;;;23.50;40.60;;;;;;6218975;28;84248;-65
2021/04/19 12:53:56;;;;;;;18.02;11.45;;;23.50;40.30;;;;;;6201048;28;83446;-66
2021/04/19 12:56:57;;;;;;;17.52;10.95;;;23.50;41.10;;;;;;6208121;28;83346;-65
2021/04/19 12:59:57;;;;;;;19.38;12.27;;;23.60;40.70;;;;;;6197662;27;83426;-64
2021/04/19 13:02:58;;;;;;;19.52;10.98;;;23.50;40.40;;;;;;6217249;28;84180;-64
2021/04/19 13:05:58;;;;;;;14.57;9.70;;;23.50;40.30;;;;;;6203236;28;83904;-64
2021/04/19 13:08:59;;;;;;;19.10;11.60;;;23.50;40.60;;;;;;6192515;28;87447;-64
2021/04/19 13:11:59;;;;;;;16.20;10.60;;;23.50;40.30;;;;;;6200243;28;83179;-66
2021/04/19 13:15:00;;;;;;;15.48;10.75;;;23.50;40.90;;;;;;6197454;28;82871;-65
2021/04/19 13:18:00;;;;;;;18.23;11.18;;;23.50;40.10;;;;;;6198765;28;83040;-64
2021/04/19 13:21:02;;;;;;;18.02;11.57;;;23.50;40.60;;;;;;6185689;27;85843;-65
2021/04/19 13:24:04;;;;;;;19.08;10.88;;;23.50;39.90;;;;;;6218819;28;83138;-66
2021/04/19 13:27:04;;;;;;;19.20;12.40;;;23.50;40.20;;;;;;6209824;28;83210;-65
2021/04/19 13:30:05;;;;;;;17.05;10.55;;;23.50;40.10;;;;;;6216441;28;83473;-64
2021/04/19 13:33:05;;;;;;;16.85;10.52;;;23.50;40.20;;;;;;6218020;27;83053;-65
2021/04/19 13:36:06;;;;;;;21.08;11.63;;;23.50;40.50;;;;;;6232204;27;84100;-65
2021/04/19 13:39:06;;;;;;;15.30;10.05;;;23.50;40.70;;;;;;6196238;28;83366;-66
2021/04/19 13:42:07;;;;;;;18.83;11.20;;;23.60;40.90;;;;;;6202821;28;82922;-66
2021/04/19 13:45:07;;;;;;;18.25;10.40;;;23.60;40.80;;;;;;6199724;28;83594;-65
2021/04/19 13:48:08;;;;;;;19.85;11.40;;;23.60;41.00;;;;;;6190274;28;83785;-66
2021/04/19 13:51:08;;;;;;;15.75;10.45;;;23.60;40.90;;;;;;6191962;27;85557;-67
2021/04/19 13:54:09;;;;;;;18.08;10.55;;;23.60;41.30;;;;;;6196427;28;82979;-66
2021/04/19 13:57:10;;;;;;;17.20;10.18;;;23.60;41.60;;;;;;6199064;28;83486;-65
2021/04/19 14:00:11;;;;;;;22.50;10.65;;;23.60;41.70;;;;;;6198149;28;85145;-65
2021/04/19 14:03:15;;;;;;;13.60;9.55;;;23.50;41.50;;;;;;6183491;28;83254;-64
2021/04/19 14:06:17;;;;;;;14.65;9.85;;;23.60;41.50;;;;;;6199743;28;87416;-66
2021/04/19 14:09:17;;;;;;;13.88;9.60;;;23.60;41.20;;;;;;6197844;28;81165;-62
2021/04/19 14:12:18;;;;;;;16.23;10.20;;;23.50;41.70;;;;;;6214357;28;80803;-64
2021/04/19 14:15:20;;;;;;;17.60;10.88;;;23.60;41.50;;;;;;6189184;28;83216;-64
2021/04/19 14:18:20;;;;;;;16.92;10.55;;;23.50;41.00;;;;;;6196883;28;84356;-64
2021/04/19 14:21:21;;;;;;;15.70;9.68;;;23.60;41.30;;;;;;6185862;28;85153;-65
2021/04/19 14:24:22;;;;;;;21.52;9.73;;;23.60;41.40;;;;;;6209169;28;83292;-64
2021/04/19 14:27:23;;;;;;;17.40;11.00;;;23.60;41.40;;;;;;6222765;28;81653;-63
2021/04/19 14:30:23;;;;;;;14.77;9.68;;;23.60;41.50;;;;;;6191995;27;83144;-61
2021/04/19 14:33:26;;;;;;;15.70;10.38;;;23.50;41.90;;;;;;6199755;28;83234;-63
2021/04/19 14:36:27;;;;;;;18.95;10.45;;;23.50;41.20;;;;;;6217146;28;82906;-64
2021/04/19 14:39:28;;;;;;;15.38;10.25;;;23.50;42.00;;;;;;6216241;28;83097;-64
2021/04/19 14:42:29;;;;;;;16.40;11.50;;;23.50;41.70;;;;;;6194398;28;83326;-64
2021/04/19 14:45:33;;;;;;;16.98;11.13;;;23.50;41.70;;;;;;6196769;28;83092;-64
2021/04/19 14:48:33;;;;;;;16.20;11.70;;;23.50;41.30;;;;;;6184644;28;89274;-64
2021/04/19 14:51:35;;;;;;;20.33;11.80;;;23.50;41.20;;;;;;6192395;28;83518;-64
2021/04/19 14:54:35;;;;;;;25.50;14.82;;;23.50;41.40;;;;;;6221059;28;88786;-64
2021/04/19 14:57:36;;;;;;;20.88;14.10;;;23.50;40.90;;;;;;6209630;28;83400;-65
2021/04/19 15:00:36;;;;;;;24.05;14.95;;;23.50;41.30;;;;;;6223042;28;83326;-65
2021/04/19 15:03:37;;;;;;;26.50;14.23;;;23.50;41.40;;;;;;6201612;28;83836;-65
2021/04/19 15:06:37;;;;;;;22.00;14.45;;;23.40;42.70;;;;;;6222935;28;83553;-64
2021/04/19 15:09:38;;;;;;;20.83;12.98;;;23.40;42.50;;;;;;6195447;27;82968;-64
2021/04/19 15:12:39;;;;;;;23.48;14.88;;;23.40;42.90;;;;;;6200010;28;84108;-64
2021/04/19 15:15:39;;;;;;;25.00;14.27;;;23.50;42.10;;;;;;6210045;28;83278;-65
2021/04/19 15:18:40;;;;;;;22.23;13.98;;;23.50;41.70;;;;;;6195369;28;84166;-66
2021/04/19 15:21:40;;;;;;;25.20;14.82;;;23.50;41.60;;;;;;6199803;28;85035;-66